sensor_id;sensor_type;location;lat;lon;timestamp;pressure;altitude;pressure_sealevel;temperature;humidity
7760;BME280;3924;48.830;9.262;2022-12-18T00:01:16;99785.19;;;-7.52;85.87
7760;BME280;3924;48.830;9.262;2022-12-18T00:03:44;99783.38;;;-7.51;86.05
7760;BME280;3924;48.830;9.262;2022-12-18T00:06:11;99789.47;;;-7.51;86.23
7760;BME280;3924;48.830;9.262;2022-12-18T00:08:38;99793.78;;;-7.50;86.28
7760;BME280;3924;48.830;9.262;2022-12-18T00:11:07;99789.47;;;-7.51;86.33
7760;BME280;3924;48.830;9.262;2022-12-18T00:13:34;99787.53;;;-7.49;86.11
7760;BME280;3924;48.830;9.262;2022-12-18T00:16:07;99789.22;;;-7.48;86.18
7760;BME280;3924;48.830;9.262;2022-12-18T00:18:35;99799.34;;;-7.53;85.99
7760;BME280;3924;48.830;9.262;2022-12-18T00:21:05;99793.25;;;-7.53;86.11
7760;BME280;3924;48.830;9.262;2022-12-18T00:23:33;99791.59;;;-7.54;86.07
7760;BME280;3924;48.830;9.262;2022-12-18T00:26:01;99797.69;;;-7.54;86.13
7760;BME280;3924;48.830;9.262;2022-12-18T00:28:28;99791.72;;;-7.56;86.05
7760;BME280;3924;48.830;9.262;2022-12-18T00:31:04;99796.88;;;-7.64;85.86
7760;BME280;3924;48.830;9.262;2022-12-18T00:33:31;99791.09;;;-7.67;86.09
7760;BME280;3924;48.830;9.262;2022-12-18T00:36:04;99802.72;;;-7.70;86.06
7760;BME280;3924;48.830;9.262;2022-12-18T00:38:32;99794.81;;;-7.70;86.22
7760;BME280;3924;48.830;9.262;2022-12-18T00:40:58;99807.16;;;-7.71;86.23
7760;BME280;3924;48.830;9.262;2022-12-18T00:43:25;99805.50;;;-7.72;86.14
7760;BME280;3924;48.830;9.262;2022-12-18T00:45:52;99808.28;;;-7.73;86.04
7760;BME280;3924;48.830;9.262;2022-12-18T00:48:19;99806.34;;;-7.71;86.36
7760;BME280;3924;48.830;9.262;2022-12-18T00:50:47;99809.66;;;-7.69;86.20
7760;BME280;3924;48.830;9.262;2022-12-18T00:53:14;99802.59;;;-7.68;86.08
7760;BME280;3924;48.830;9.262;2022-12-18T00:55:41;99797.34;;;-7.68;86.07
7760;BME280;3924;48.830;9.262;2022-12-18T00:58:08;99792.06;;;-7.68;86.21
7760;BME280;3924;48.830;9.262;2022-12-18T01:00:35;99792.91;;;-7.68;85.77
7760;BME280;3924;48.830;9.262;2022-12-18T01:03:02;99804.38;;;-7.69;86.02
7760;BME280;3924;48.830;9.262;2022-12-18T01:05:29;99800.91;;;-7.69;86.01
7760;BME280;3924;48.830;9.262;2022-12-18T01:07:56;99805.25;;;-7.68;85.90
7760;BME280;3924;48.830;9.262;2022-12-18T01:10:23;99802.59;;;-7.68;85.74
7760;BME280;3924;48.830;9.262;2022-12-18T01:12:50;99791.81;;;-7.75;85.81
7760;BME280;3924;48.830;9.262;2022-12-18T01:15:18;99795.16;;;-7.83;85.70
7760;BME280;3924;48.830;9.262;2022-12-18T01:17:44;99786.44;;;-7.83;85.75
7760;BME280;3924;48.830;9.262;2022-12-18T01:20:11;99795.59;;;-7.87;86.06
7760;BME280;3924;48.830;9.262;2022-12-18T01:22:39;99802.53;;;-7.86;86.03
7760;BME280;3924;48.830;9.262;2022-12-18T01:25:05;99807.09;;;-7.88;85.82
7760;BME280;3924;48.830;9.262;2022-12-18T01:27:33;99816.91;;;-7.90;86.12
7760;BME280;3924;48.830;9.262;2022-12-18T01:30:00;99799.47;;;-7.91;86.05
7760;BME280;3924;48.830;9.262;2022-12-18T01:32:29;99808.06;;;-7.89;86.04
7760;BME280;3924;48.830;9.262;2022-12-18T01:34:56;99816.81;;;-7.89;86.08
7760;BME280;3924;48.830;9.262;2022-12-18T01:37:23;99812.50;;;-7.90;86.31
7760;BME280;3924;48.830;9.262;2022-12-18T01:39:52;99818.56;;;-7.89;85.90
7760;BME280;3924;48.830;9.262;2022-12-18T01:42:21;99808.06;;;-7.89;86.27
7760;BME280;3924;48.830;9.262;2022-12-18T01:45:01;99812.38;;;-7.88;85.97
7760;BME280;3924;48.830;9.262;2022-12-18T01:50:02;99820.53;;;-7.91;85.89
7760;BME280;3924;48.830;9.262;2022-12-18T01:52:32;99818.56;;;-7.89;86.01
7760;BME280;3924;48.830;9.262;2022-12-18T01:55:00;99821.91;;;-7.87;85.70
7760;BME280;3924;48.830;9.262;2022-12-18T01:57:28;99821.91;;;-7.87;85.92
7760;BME280;3924;48.830;9.262;2022-12-18T01:59:59;99804.19;;;-7.85;86.01
7760;BME280;3924;48.830;9.262;2022-12-18T02:02:28;99794.78;;;-7.88;85.58
7760;BME280;3924;48.830;9.262;2022-12-18T02:04:56;99809.75;;;-7.88;85.65
7760;BME280;3924;48.830;9.262;2022-12-18T02:07:35;99818.31;;;-7.86;85.88
7760;BME280;3924;48.830;9.262;2022-12-18T02:10:10;99802.66;;;-7.88;85.79
7760;BME280;3924;48.830;9.262;2022-12-18T02:12:49;99802.66;;;-7.88;85.87
7760;BME280;3924;48.830;9.262;2022-12-18T02:15:26;99803.75;;;-7.90;85.82
7760;BME280;3924;48.830;9.262;2022-12-18T02:17:59;99803.66;;;-7.89;86.01
7760;BME280;3924;48.830;9.262;2022-12-18T02:20:35;99804.47;;;-7.88;85.63
7760;BME280;3924;48.830;9.262;2022-12-18T02:23:21;99811.09;;;-7.84;86.09
7760;BME280;3924;48.830;9.262;2022-12-18T02:29:08;99819.41;;;-7.79;85.72
7760;BME280;3924;48.830;9.262;2022-12-18T02:31:40;99821.03;;;-7.78;85.61
7760;BME280;3924;48.830;9.262;2022-12-18T02:34:10;99821.03;;;-7.78;85.61
7760;BME280;3924;48.830;9.262;2022-12-18T02:36:40;99813.31;;;-7.80;85.43
7760;BME280;3924;48.830;9.262;2022-12-18T02:39:10;99813.31;;;-7.80;85.54
7760;BME280;3924;48.830;9.262;2022-12-18T02:41:38;99816.75;;;-7.79;85.67
7760;BME280;3924;48.830;9.262;2022-12-18T02:44:10;99823.53;;;-7.77;85.88
7760;BME280;3924;48.830;9.262;2022-12-18T02:46:42;99824.34;;;-7.76;85.64
7760;BME280;3924;48.830;9.262;2022-12-18T02:49:25;99836.56;;;-7.75;85.64
7760;BME280;3924;48.830;9.262;2022-12-18T02:51:59;99841.81;;;-7.75;85.64
7760;BME280;3924;48.830;9.262;2022-12-18T02:54:51;99840.03;;;-7.75;85.65
7760;BME280;3924;48.830;9.262;2022-12-18T02:57:35;99836.56;;;-7.75;85.68
7760;BME280;3924;48.830;9.262;2022-12-18T03:05:26;99828.00;;;-7.87;85.58
7760;BME280;3924;48.830;9.262;2022-12-18T03:08:05;99835.22;;;-7.89;85.39
7760;BME280;3924;48.830;9.262;2022-12-18T03:10:35;99823.31;;;-7.93;85.39
7760;BME280;3924;48.830;9.262;2022-12-18T03:13:08;99826.91;;;-7.94;85.60
7760;BME280;3924;48.830;9.262;2022-12-18T03:15:39;99831.06;;;-7.91;85.67
7760;BME280;3924;48.830;9.262;2022-12-18T03:18:25;99833.00;;;-7.93;85.83
7760;BME280;3924;48.830;9.262;2022-12-18T03:20:55;99835.09;;;-7.97;85.55
7760;BME280;3924;48.830;9.262;2022-12-18T03:23:27;99842.00;;;-7.96;85.69
7760;BME280;3924;48.830;9.262;2022-12-18T03:25:57;99842.16;;;-7.97;85.67
7760;BME280;3924;48.830;9.262;2022-12-18T03:28:36;99849.47;;;-7.91;85.92
7760;BME280;3924;48.830;9.262;2022-12-18T03:31:04;99852.94;;;-7.91;85.56
7760;BME280;3924;48.830;9.262;2022-12-18T03:33:38;99852.50;;;-7.96;85.49
7760;BME280;3924;48.830;9.262;2022-12-18T03:36:06;99851.00;;;-7.99;85.55
7760;BME280;3924;48.830;9.262;2022-12-18T03:38:33;99853.94;;;-8.02;85.48
7760;BME280;3924;48.830;9.262;2022-12-18T03:44:02;99851.31;;;-8.02;85.74
7760;BME280;3924;48.830;9.262;2022-12-18T03:46:54;99847.56;;;-7.99;85.63
7760;BME280;3924;48.830;9.262;2022-12-18T03:52:29;99847.13;;;-7.94;85.58
7760;BME280;3924;48.830;9.262;2022-12-18T03:54:59;99847.69;;;-8.01;85.60
7760;BME280;3924;48.830;9.262;2022-12-18T03:57:28;99852.41;;;-8.04;85.32
7760;BME280;3924;48.830;9.262;2022-12-18T04:00:01;99848.53;;;-8.10;85.46
7760;BME280;3924;48.830;9.262;2022-12-18T04:02:30;99843.00;;;-8.07;85.86
7760;BME280;3924;48.830;9.262;2022-12-18T04:05:00;99849.94;;;-8.15;85.07
7760;BME280;3924;48.830;9.262;2022-12-18T04:07:28;99849.38;;;-8.19;85.44
7760;BME280;3924;48.830;9.262;2022-12-18T04:09:56;99843.31;;;-8.29;85.23
7760;BME280;3924;48.830;9.262;2022-12-18T04:12:26;99836.66;;;-8.33;85.22
7760;BME280;3924;48.830;9.262;2022-12-18T04:14:52;99838.66;;;-8.35;85.50
7760;BME280;3924;48.830;9.262;2022-12-18T04:17:19;99835.19;;;-8.36;85.46
7760;BME280;3924;48.830;9.262;2022-12-18T04:19:46;99837.81;;;-8.36;85.76
7760;BME280;3924;48.830;9.262;2022-12-18T04:22:12;99822.06;;;-8.36;85.60
7760;BME280;3924;48.830;9.262;2022-12-18T04:24:39;99838.91;;;-8.38;85.17
7760;BME280;3924;48.830;9.262;2022-12-18T04:27:05;99836.16;;;-8.46;85.44
7760;BME280;3924;48.830;9.262;2022-12-18T04:29:32;99833.00;;;-8.50;85.58
7760;BME280;3924;48.830;9.262;2022-12-18T04:31:58;99843.38;;;-8.48;85.61
7760;BME280;3924;48.830;9.262;2022-12-18T04:34:26;99856.50;;;-8.48;85.38
7760;BME280;3924;48.830;9.262;2022-12-18T04:36:52;99861.63;;;-8.47;85.58
7760;BME280;3924;48.830;9.262;2022-12-18T04:39:18;99859.13;;;-8.48;85.49
7760;BME280;3924;48.830;9.262;2022-12-18T04:41:45;99861.75;;;-8.48;85.58
7760;BME280;3924;48.830;9.262;2022-12-18T04:44:11;99859.28;;;-8.50;85.57
7760;BME280;3924;48.830;9.262;2022-12-18T04:46:38;99852.47;;;-8.52;85.43
7760;BME280;3924;48.830;9.262;2022-12-18T04:49:05;99848.06;;;-8.52;85.57
7760;BME280;3924;48.830;9.262;2022-12-18T04:51:31;99848.88;;;-8.51;85.53
7760;BME280;3924;48.830;9.262;2022-12-18T04:53:57;99842.69;;;-8.50;85.75
7760;BME280;3924;48.830;9.262;2022-12-18T04:56:24;99835.72;;;-8.51;85.39
7760;BME280;3924;48.830;9.262;2022-12-18T04:58:50;99842.94;;;-8.53;85.67
7760;BME280;3924;48.830;9.262;2022-12-18T05:01:17;99845.16;;;-8.59;85.45
7760;BME280;3924;48.830;9.262;2022-12-18T05:03:44;99844.47;;;-8.61;85.69
7760;BME280;3924;48.830;9.262;2022-12-18T05:06:11;99835.91;;;-8.63;85.14
7760;BME280;3924;48.830;9.262;2022-12-18T05:08:38;99834.25;;;-8.64;85.52
7760;BME280;3924;48.830;9.262;2022-12-18T05:11:10;99843.63;;;-8.61;85.31
7760;BME280;3924;48.830;9.262;2022-12-18T05:13:37;99843.63;;;-8.61;85.49
7760;BME280;3924;48.830;9.262;2022-12-18T05:16:05;99829.53;;;-8.60;85.70
7760;BME280;3924;48.830;9.262;2022-12-18T05:18:32;99837.53;;;-8.62;85.25
7760;BME280;3924;48.830;9.262;2022-12-18T05:20:58;99853.56;;;-8.65;85.55
7760;BME280;3924;48.830;9.262;2022-12-18T05:23:25;99850.25;;;-8.67;85.63
7760;BME280;3924;48.830;9.262;2022-12-18T05:25:56;99848.59;;;-8.68;85.30
7760;BME280;3924;48.830;9.262;2022-12-18T05:28:24;99839.75;;;-8.67;85.21
7760;BME280;3924;48.830;9.262;2022-12-18T05:30:52;99850.94;;;-8.65;85.66
7760;BME280;3924;48.830;9.262;2022-12-18T05:33:20;99855.38;;;-8.65;85.30
7760;BME280;3924;48.830;9.262;2022-12-18T05:35:52;99862.31;;;-8.64;85.21
7760;BME280;3924;48.830;9.262;2022-12-18T05:38:19;99865.78;;;-8.64;85.43
7760;BME280;3924;48.830;9.262;2022-12-18T05:40:47;99858.56;;;-8.62;85.73
7760;BME280;3924;48.830;9.262;2022-12-18T05:43:14;99864.66;;;-8.61;85.29
7760;BME280;3924;48.830;9.262;2022-12-18T05:45:47;99866.59;;;-8.63;85.36
7760;BME280;3924;48.830;9.262;2022-12-18T05:48:14;99869.63;;;-8.68;85.46
7760;BME280;3924;48.830;9.262;2022-12-18T05:50:42;99866.84;;;-8.66;85.21
7760;BME280;3924;48.830;9.262;2022-12-18T05:53:09;99866.03;;;-8.67;85.37
7760;BME280;3924;48.830;9.262;2022-12-18T05:55:36;99859.25;;;-8.69;85.46
7760;BME280;3924;48.830;9.262;2022-12-18T05:58:04;99864.91;;;-8.74;85.18
7760;BME280;3924;48.830;9.262;2022-12-18T06:00:32;99855.22;;;-8.73;85.16
7760;BME280;3924;48.830;9.262;2022-12-18T06:02:59;99861.31;;;-8.73;85.28
7760;BME280;3924;48.830;9.262;2022-12-18T06:05:26;99859.66;;;-8.74;85.22
7760;BME280;3924;48.830;9.262;2022-12-18T06:07:52;99858.00;;;-8.75;85.29
7760;BME280;3924;48.830;9.262;2022-12-18T06:10:19;99865.88;;;-8.75;84.95
7760;BME280;3924;48.830;9.262;2022-12-18T06:12:45;99859.66;;;-8.74;85.38
7760;BME280;3924;48.830;9.262;2022-12-18T06:15:12;99865.75;;;-8.73;85.46
7760;BME280;3924;48.830;9.262;2022-12-18T06:17:39;99862.97;;;-8.72;85.43
7760;BME280;3924;48.830;9.262;2022-12-18T06:20:06;99868.94;;;-8.70;85.37
7760;BME280;3924;48.830;9.262;2022-12-18T06:22:33;99868.94;;;-8.70;85.18
7760;BME280;3924;48.830;9.262;2022-12-18T06:25:01;99865.50;;;-8.70;85.39
7760;BME280;3924;48.830;9.262;2022-12-18T06:27:28;99862.72;;;-8.69;85.52
7760;BME280;3924;48.830;9.262;2022-12-18T06:29:54;99868.13;;;-8.70;85.04
7760;BME280;3924;48.830;9.262;2022-12-18T06:32:21;99862.44;;;-8.75;85.11
7760;BME280;3924;48.830;9.262;2022-12-18T06:34:47;99867.69;;;-8.75;85.14
7760;BME280;3924;48.830;9.262;2022-12-18T06:37:14;99878.34;;;-8.77;84.91
7760;BME280;3924;48.830;9.262;2022-12-18T06:39:40;99880.97;;;-8.77;85.11
7760;BME280;3924;48.830;9.262;2022-12-18T06:42:07;99878.06;;;-8.74;85.13
7760;BME280;3924;48.830;9.262;2022-12-18T06:44:33;99880.53;;;-8.72;85.03
7760;BME280;3924;48.830;9.262;2022-12-18T06:47:00;99871.56;;;-8.70;85.38
7760;BME280;3924;48.830;9.262;2022-12-18T06:49:26;99884.00;;;-8.72;85.14
7760;BME280;3924;48.830;9.262;2022-12-18T06:51:56;99889.53;;;-8.75;85.03
7760;BME280;3924;48.830;9.262;2022-12-18T06:54:22;99882.47;;;-8.74;85.05
7760;BME280;3924;48.830;9.262;2022-12-18T06:56:49;99886.91;;;-8.75;85.02
7760;BME280;3924;48.830;9.262;2022-12-18T06:59:16;99882.06;;;-8.79;84.79
7760;BME280;3924;48.830;9.262;2022-12-18T07:01:42;99888.41;;;-8.82;84.90
7760;BME280;3924;48.830;9.262;2022-12-18T07:04:09;99889.78;;;-8.88;84.79
7760;BME280;3924;48.830;9.262;2022-12-18T07:06:36;99885.91;;;-8.93;84.74
7760;BME280;3924;48.830;9.262;2022-12-18T07:09:02;99886.03;;;-8.95;84.92
7760;BME280;3924;48.830;9.262;2022-12-18T07:11:29;99887.84;;;-8.95;84.96
7760;BME280;3924;48.830;9.262;2022-12-18T07:14:01;99900.81;;;-8.94;84.90
7760;BME280;3924;48.830;9.262;2022-12-18T07:16:28;99910.25;;;-8.91;85.09
7760;BME280;3924;48.830;9.262;2022-12-18T07:18:55;99910.50;;;-8.94;85.06
7760;BME280;3924;48.830;9.262;2022-12-18T07:21:23;99916.44;;;-8.92;85.24
7760;BME280;3924;48.830;9.262;2022-12-18T07:23:50;99911.09;;;-8.91;84.82
7760;BME280;3924;48.830;9.262;2022-12-18T07:26:19;99911.63;;;-8.87;85.22
7760;BME280;3924;48.830;9.262;2022-12-18T07:28:46;99911.38;;;-8.84;85.19
7760;BME280;3924;48.830;9.262;2022-12-18T07:31:19;99917.84;;;-8.78;85.13
7760;BME280;3924;48.830;9.262;2022-12-18T07:33:47;99916.63;;;-8.74;85.05
7760;BME280;3924;48.830;9.262;2022-12-18T07:36:14;99921.75;;;-8.73;84.95
7760;BME280;3924;48.830;9.262;2022-12-18T07:38:40;99929.63;;;-8.73;84.68
7760;BME280;3924;48.830;9.262;2022-12-18T07:41:12;99933.22;;;-8.74;85.27
7760;BME280;3924;48.830;9.262;2022-12-18T07:43:39;99932.97;;;-8.71;85.17
7760;BME280;3924;48.830;9.262;2022-12-18T07:46:08;99930.75;;;-8.66;85.25
7760;BME280;3924;48.830;9.262;2022-12-18T07:48:35;99930.50;;;-8.63;85.06
7760;BME280;3924;48.830;9.262;2022-12-18T07:51:04;99936.44;;;-8.61;85.05
7760;BME280;3924;48.830;9.262;2022-12-18T07:53:32;99931.63;;;-8.56;84.92
7760;BME280;3924;48.830;9.262;2022-12-18T07:56:02;99925.09;;;-8.51;84.79
7760;BME280;3924;48.830;9.262;2022-12-18T07:58:48;99933.56;;;-8.48;84.61
7760;BME280;3924;48.830;9.262;2022-12-18T08:01:15;99932.44;;;-8.45;84.99
7760;BME280;3924;48.830;9.262;2022-12-18T08:03:42;99930.78;;;-8.46;84.69
7760;BME280;3924;48.830;9.262;2022-12-18T08:06:09;99932.44;;;-8.45;84.96
7760;BME280;3924;48.830;9.262;2022-12-18T08:08:36;99933.00;;;-8.42;84.77
7760;BME280;3924;48.830;9.262;2022-12-18T08:11:03;99930.66;;;-8.35;84.92
7760;BME280;3924;48.830;9.262;2022-12-18T08:13:29;99931.75;;;-8.28;84.53
7760;BME280;3924;48.830;9.262;2022-12-18T08:16:02;99938.94;;;-8.20;84.84
7760;BME280;3924;48.830;9.262;2022-12-18T08:18:29;99937.56;;;-8.15;84.78
7760;BME280;3924;48.830;9.262;2022-12-18T08:20:56;99928.28;;;-8.19;84.40
7760;BME280;3924;48.830;9.262;2022-12-18T08:23:22;99925.38;;;-8.16;84.45
7760;BME280;3924;48.830;9.262;2022-12-18T08:25:53;99928.41;;;-8.11;84.58
7760;BME280;3924;48.830;9.262;2022-12-18T08:28:20;99939.66;;;-8.09;84.64
7760;BME280;3924;48.830;9.262;2022-12-18T08:30:51;99942.81;;;-8.05;84.79
7760;BME280;3924;48.830;9.262;2022-12-18T08:33:18;99930.22;;;-8.02;84.67
7760;BME280;3924;48.830;9.262;2022-12-18T08:35:45;99933.25;;;-7.96;84.51
7760;BME280;3924;48.830;9.262;2022-12-18T08:38:11;99941.28;;;-7.88;84.53
7760;BME280;3924;48.830;9.262;2022-12-18T08:40:37;99928.00;;;-7.87;84.48
7760;BME280;3924;48.830;9.262;2022-12-18T08:43:04;99932.41;;;-7.78;84.27
7760;BME280;3924;48.830;9.262;2022-12-18T08:45:49;99929.78;;;-7.68;84.32
7760;BME280;3924;48.830;9.262;2022-12-18T08:48:15;99936.81;;;-7.59;84.53
7760;BME280;3924;48.830;9.262;2022-12-18T08:50:57;99935.94;;;-7.50;84.00
7760;BME280;3924;48.830;9.262;2022-12-18T08:53:24;99932.75;;;-7.44;84.10
7760;BME280;3924;48.830;9.262;2022-12-18T08:55:51;99926.59;;;-7.34;84.14
7760;BME280;3924;48.830;9.262;2022-12-18T08:58:18;99945.59;;;-7.31;83.73
7760;BME280;3924;48.830;9.262;2022-12-18T09:00:44;99931.44;;;-7.30;83.93
7760;BME280;3924;48.830;9.262;2022-12-18T09:03:15;99928.66;;;-7.28;84.02
7760;BME280;3924;48.830;9.262;2022-12-18T09:05:43;99927.72;;;-7.27;83.96
7760;BME280;3924;48.830;9.262;2022-12-18T09:08:09;99912.44;;;-7.24;84.02
7760;BME280;3924;48.830;9.262;2022-12-18T09:10:43;99920.91;;;-7.20;83.64
7760;BME280;3924;48.830;9.262;2022-12-18T09:13:12;99916.00;;;-7.15;83.96
7760;BME280;3924;48.830;9.262;2022-12-18T09:15:46;99918.22;;;-7.10;83.83
7760;BME280;3924;48.830;9.262;2022-12-18T09:18:14;99914.16;;;-7.05;83.96
7760;BME280;3924;48.830;9.262;2022-12-18T09:20:41;99919.69;;;-6.98;83.81
7760;BME280;3924;48.830;9.262;2022-12-18T09:23:07;99914.94;;;-6.95;83.64
7760;BME280;3924;48.830;9.262;2022-12-18T09:25:35;99907.44;;;-6.90;83.53
7760;BME280;3924;48.830;9.262;2022-12-18T09:28:10;99910.16;;;-6.81;83.81
7760;BME280;3924;48.830;9.262;2022-12-18T09:30:42;99909.97;;;-6.70;83.60
7760;BME280;3924;48.830;9.262;2022-12-18T09:33:09;99900.47;;;-6.63;83.68
7760;BME280;3924;48.830;9.262;2022-12-18T09:35:39;99896.66;;;-6.51;83.74
7760;BME280;3924;48.830;9.262;2022-12-18T09:38:08;99898.06;;;-6.39;83.43
7760;BME280;3924;48.830;9.262;2022-12-18T09:40:43;99894.38;;;-6.28;83.45
7760;BME280;3924;48.830;9.262;2022-12-18T09:44:05;99900.09;;;-6.15;83.32
7760;BME280;3924;48.830;9.262;2022-12-18T09:46:07;99891.81;;;-6.02;83.23
7760;BME280;3924;48.830;9.262;2022-12-18T09:48:42;99888.75;;;-5.89;83.05
7760;BME280;3924;48.830;9.262;2022-12-18T09:51:15;99881.75;;;-5.72;82.85
7760;BME280;3924;48.830;9.262;2022-12-18T09:53:47;99877.91;;;-5.52;82.77
7760;BME280;3924;48.830;9.262;2022-12-18T09:56:17;99882.31;;;-5.35;82.74
7760;BME280;3924;48.830;9.262;2022-12-18T09:58:58;99875.81;;;-5.14;82.17
7760;BME280;3924;48.830;9.262;2022-12-18T10:01:27;99873.06;;;-4.97;82.16
7760;BME280;3924;48.830;9.262;2022-12-18T10:04:08;99867.13;;;-4.82;82.00
7760;BME280;3924;48.830;9.262;2022-12-18T10:06:40;99871.81;;;-4.68;82.19
7760;BME280;3924;48.830;9.262;2022-12-18T10:09:18;99875.50;;;-4.53;81.90
7760;BME280;3924;48.830;9.262;2022-12-18T10:26:09;99888.28;;;-3.83;81.25
7760;BME280;3924;48.830;9.262;2022-12-18T10:28:38;99883.94;;;-3.68;81.16
7760;BME280;3924;48.830;9.262;2022-12-18T10:31:21;99889.38;;;-3.53;80.95
7760;BME280;3924;48.830;9.262;2022-12-18T10:33:50;99883.06;;;-3.44;80.86
7760;BME280;3924;48.830;9.262;2022-12-18T10:36:16;99879.38;;;-3.26;80.75
7760;BME280;3924;48.830;9.262;2022-12-18T10:38:43;99878.00;;;-3.14;80.60
7760;BME280;3924;48.830;9.262;2022-12-18T10:43:48;99892.34;;;-2.92;80.34
7760;BME280;3924;48.830;9.262;2022-12-18T10:46:17;99890.97;;;-2.80;80.24
7760;BME280;3924;48.830;9.262;2022-12-18T10:48:53;99884.47;;;-2.78;80.41
7760;BME280;3924;48.830;9.262;2022-12-18T10:51:28;99888.28;;;-2.72;80.31
7760;BME280;3924;48.830;9.262;2022-12-18T10:54:00;99882.13;;;-2.72;80.09
7760;BME280;3924;48.830;9.262;2022-12-18T10:56:29;99882.91;;;-2.64;80.06
7760;BME280;3924;48.830;9.262;2022-12-18T11:01:48;99889.75;;;-2.38;80.03
7760;BME280;3924;48.830;9.262;2022-12-18T11:04:23;99890.94;;;-2.18;79.86
7760;BME280;3924;48.830;9.262;2022-12-18T11:06:55;99884.84;;;-2.04;79.72
7760;BME280;3924;48.830;9.262;2022-12-18T11:09:26;99869.47;;;-1.94;79.60
7760;BME280;3924;48.830;9.262;2022-12-18T11:11:58;99879.69;;;-1.82;79.33
7760;BME280;3924;48.830;9.262;2022-12-18T11:14:57;99869.56;;;-1.87;79.20
7760;BME280;3924;48.830;9.262;2022-12-18T11:17:33;99868.34;;;-1.76;79.41
7760;BME280;3924;48.830;9.262;2022-12-18T11:20:04;99857.25;;;-1.65;79.07
7760;BME280;3924;48.830;9.262;2022-12-18T11:22:36;99847.81;;;-1.53;78.94
7760;BME280;3924;48.830;9.262;2022-12-18T11:25:18;99843.72;;;-1.41;79.05
7760;BME280;3924;48.830;9.262;2022-12-18T11:31:25;99822.63;;;-1.42;78.83
7760;BME280;3924;48.830;9.262;2022-12-18T11:33:54;99831.97;;;-1.46;78.94
7760;BME280;3924;48.830;9.262;2022-12-18T11:36:44;99838.28;;;-1.47;78.53
7760;BME280;3924;48.830;9.262;2022-12-18T11:39:26;99831.31;;;-1.33;78.74
7760;BME280;3924;48.830;9.262;2022-12-18T11:42:04;99833.03;;;-1.11;78.63
7760;BME280;3924;48.830;9.262;2022-12-18T11:44:43;99834.22;;;-0.99;78.35
7760;BME280;3924;48.830;9.262;2022-12-18T11:50:29;99821.13;;;-1.00;78.30
7760;BME280;3924;48.830;9.262;2022-12-18T11:52:57;99812.13;;;-0.99;78.27
7760;BME280;3924;48.830;9.262;2022-12-18T11:55:37;99815.31;;;-1.04;78.37
7760;BME280;3924;48.830;9.262;2022-12-18T12:01:18;99809.06;;;-0.81;78.22
7760;BME280;3924;48.830;9.262;2022-12-18T12:10:04;99798.63;;;-0.98;78.17
7760;BME280;3924;48.830;9.262;2022-12-18T12:21:45;99792.03;;;-1.02;78.26
7760;BME280;3924;48.830;9.262;2022-12-18T12:24:51;99793.28;;;-0.98;77.94
7760;BME280;3924;48.830;9.262;2022-12-18T12:27:43;99790.31;;;-1.09;78.27
7760;BME280;3924;48.830;9.262;2022-12-18T12:30:23;99787.72;;;-1.03;78.25
7760;BME280;3924;48.830;9.262;2022-12-18T12:33:00;99785.97;;;-0.96;78.03
7760;BME280;3924;48.830;9.262;2022-12-18T12:38:52;99794.50;;;-1.00;78.08
7760;BME280;3924;48.830;9.262;2022-12-18T12:41:27;99797.28;;;-1.08;77.85
7760;BME280;3924;48.830;9.262;2022-12-18T12:44:23;99795.16;;;-1.13;77.94
7760;BME280;3924;48.830;9.262;2022-12-18T12:46:56;99799.78;;;-1.22;78.08
7760;BME280;3924;48.830;9.262;2022-12-18T12:49:27;99790.50;;;-1.26;78.31
7760;BME280;3924;48.830;9.262;2022-12-18T12:52:30;99788.97;;;-1.35;78.49
7760;BME280;3924;48.830;9.262;2022-12-18T12:54:59;99790.53;;;-1.41;78.32
7760;BME280;3924;48.830;9.262;2022-12-18T12:57:45;99804.00;;;-1.42;78.21
7760;BME280;3924;48.830;9.262;2022-12-18T13:00:18;99811.91;;;-1.49;78.25
7760;BME280;3924;48.830;9.262;2022-12-18T13:03:35;99810.97;;;-1.56;78.42
7760;BME280;3924;48.830;9.262;2022-12-18T13:06:40;99806.38;;;-1.62;78.23
7760;BME280;3924;48.830;9.262;2022-12-18T13:09:10;99808.84;;;-1.60;78.45
7760;BME280;3924;48.830;9.262;2022-12-18T13:11:45;99809.03;;;-1.62;78.18
7760;BME280;3924;48.830;9.262;2022-12-18T13:14:50;99807.22;;;-1.76;78.32
7760;BME280;3924;48.830;9.262;2022-12-18T13:17:35;99808.56;;;-1.80;78.44
7760;BME280;3924;48.830;9.262;2022-12-18T13:20:15;99809.56;;;-1.81;78.65
7760;BME280;3924;48.830;9.262;2022-12-18T13:22:47;99809.28;;;-1.86;78.42
7760;BME280;3924;48.830;9.262;2022-12-18T13:25:36;99807.63;;;-1.87;78.58
7760;BME280;3924;48.830;9.262;2022-12-18T13:30:53;99793.09;;;-1.77;78.49
7760;BME280;3924;48.830;9.262;2022-12-18T13:33:47;99801.81;;;-1.68;78.15
7760;BME280;3924;48.830;9.262;2022-12-18T13:36:35;99794.13;;;-1.63;78.16
7760;BME280;3924;48.830;9.262;2022-12-18T13:39:22;99791.06;;;-1.60;77.97
7760;BME280;3924;48.830;9.262;2022-12-18T13:44:41;99787.16;;;-1.64;78.21
7760;BME280;3924;48.830;9.262;2022-12-18T13:47:35;99782.66;;;-1.63;78.35
7760;BME280;3924;48.830;9.262;2022-12-18T13:50:27;99782.66;;;-1.63;77.83
7760;BME280;3924;48.830;9.262;2022-12-18T13:53:03;99785.03;;;-1.69;78.10
7760;BME280;3924;48.830;9.262;2022-12-18T13:55:32;99777.41;;;-1.72;78.25
7760;BME280;3924;48.830;9.262;2022-12-18T13:58:05;99781.63;;;-1.77;78.16
7760;BME280;3924;48.830;9.262;2022-12-18T14:00:32;99777.69;;;-1.81;78.35
7760;BME280;3924;48.830;9.262;2022-12-18T14:03:00;99783.19;;;-1.83;78.35
7760;BME280;3924;48.830;9.262;2022-12-18T14:05:38;99780.72;;;-1.84;78.28
7760;BME280;3924;48.830;9.262;2022-12-18T14:08:12;99781.69;;;-1.85;78.37
7760;BME280;3924;48.830;9.262;2022-12-18T14:10:49;99787.38;;;-1.88;78.26
7760;BME280;3924;48.830;9.262;2022-12-18T14:15:48;99785.53;;;-2.03;78.38
7760;BME280;3924;48.830;9.262;2022-12-18T14:20:47;99795.31;;;-2.18;78.50
7760;BME280;3924;48.830;9.262;2022-12-18T14:23:38;99794.19;;;-2.24;78.73
7760;BME280;3924;48.830;9.262;2022-12-18T14:26:28;99792.91;;;-2.28;78.63
7760;BME280;3924;48.830;9.262;2022-12-18T14:28:57;99789.16;;;-2.33;78.93
7760;BME280;3924;48.830;9.262;2022-12-18T14:31:26;99789.84;;;-2.39;78.94
7760;BME280;3924;48.830;9.262;2022-12-18T14:33:53;99801.00;;;-2.44;78.76
7760;BME280;3924;48.830;9.262;2022-12-18T14:36:30;99796.22;;;-2.49;78.74
7760;BME280;3924;48.830;9.262;2022-12-18T14:38:58;99797.59;;;-2.53;78.94
7760;BME280;3924;48.830;9.262;2022-12-18T14:41:26;99801.59;;;-2.57;79.10
7760;BME280;3924;48.830;9.262;2022-12-18T14:43:54;99798.63;;;-2.62;79.28
7760;BME280;3924;48.830;9.262;2022-12-18T14:46:35;99793.19;;;-2.68;79.11
7760;BME280;3924;48.830;9.262;2022-12-18T14:49:16;99802.72;;;-2.74;79.27
7760;BME280;3924;48.830;9.262;2022-12-18T14:51:49;99805.25;;;-2.81;79.23
7760;BME280;3924;48.830;9.262;2022-12-18T14:54:19;99806.75;;;-2.86;79.32
7760;BME280;3924;48.830;9.262;2022-12-18T14:56:51;99808.28;;;-2.92;79.35
7760;BME280;3924;48.830;9.262;2022-12-18T14:59:21;99803.66;;;-2.98;79.57
7760;BME280;3924;48.830;9.262;2022-12-18T15:02:15;99793.13;;;-3.06;79.64